Time;durP1;ratioP1;P1;durP2;ratioP2;P2;SDS_P1;SDS_P2;PMS_P1;PMS_P2;Temp;Humidity;BMP_temperature;BMP_pressure;BME280_temperature;BME280_humidity;BME280_pressure;Samples;Min_cycle;Max_cycle;Signal;HPM_P1;HPM_P2
2022/01/30 00:01:35;;;;;;;16.98;2.63;;;6.70;99.90;;;;;;4635694;28;10000046;-72
2022/01/30 00:04:00;;;;;;;16.92;2.83;;;6.70;99.90;;;;;;4977959;28;20652;-72
2022/01/30 00:06:26;;;;;;;20.63;3.45;;;6.70;99.90;;;;;;4979588;28;20062;-71
2022/01/30 00:08:51;;;;;;;17.90;2.78;;;6.70;99.90;;;;;;4984247;28;20054;-72
2022/01/30 00:11:24;;;;;;;21.17;3.17;;;6.70;99.90;;;;;;4984991;28;20034;-72
2022/01/30 00:13:50;;;;;;;12.10;2.33;;;6.70;99.90;;;;;;4988175;28;20030;-71
2022/01/30 00:16:17;;;;;;;16.90;2.58;;;6.60;99.90;;;;;;4976622;28;20664;-72
2022/01/30 00:18:54;;;;;;;20.73;2.78;;;6.70;99.90;;;;;;4980184;28;20034;-72
2022/01/30 00:24:07;;;;;;;20.35;3.05;;;6.70;99.90;;;;;;4987666;28;20034;-72
2022/01/30 00:26:35;;;;;;;22.60;2.85;;;6.70;99.90;;;;;;4983666;28;20034;-71
2022/01/30 00:29:01;;;;;;;15.02;2.17;;;6.70;99.90;;;;;;4982252;28;20035;-72
2022/01/30 00:31:27;;;;;;;18.05;3.20;;;6.70;99.90;;;;;;4984423;28;20069;-71
2022/01/30 00:33:54;;;;;;;18.10;2.83;;;6.60;99.90;;;;;;4980330;28;20089;-72
2022/01/30 00:36:20;;;;;;;19.48;2.90;;;6.60;99.90;;;;;;4982788;28;20033;-71
2022/01/30 00:38:45;;;;;;;19.00;3.03;;;6.60;99.90;;;;;;4979756;28;20491;-72
2022/01/30 00:41:12;;;;;;;13.18;2.28;;;6.60;99.90;;;;;;4985408;28;20458;-71
2022/01/30 00:43:37;;;;;;;15.35;2.97;;;6.50;99.90;;;;;;4977869;28;20114;-72
2022/01/30 00:46:03;;;;;;;15.98;2.85;;;6.50;99.90;;;;;;4982594;28;20113;-72
2022/01/30 00:48:29;;;;;;;14.52;2.35;;;6.40;99.90;;;;;;4979868;28;20503;-71
2022/01/30 00:50:55;;;;;;;15.32;2.40;;;6.40;99.90;;;;;;4982320;28;20030;-72
2022/01/30 00:53:21;;;;;;;14.95;2.20;;;6.40;99.90;;;;;;4984386;28;20027;-72
2022/01/30 00:55:46;;;;;;;10.48;1.50;;;6.30;99.90;;;;;;4987371;28;20041;-72
2022/01/30 00:58:12;;;;;;;14.43;2.15;;;6.20;99.90;;;;;;4985108;28;20038;-72
2022/01/30 01:00:38;;;;;;;13.18;1.77;;;6.10;99.90;;;;;;4976594;28;20037;-71
2022/01/30 01:03:05;;;;;;;10.48;1.73;;;6.10;99.90;;;;;;4973646;28;20597;-72
2022/01/30 01:05:33;;;;;;;15.50;2.03;;;6.00;99.90;;;;;;4983724;28;20038;-72
2022/01/30 01:08:06;;;;;;;8.40;1.63;;;5.90;99.90;;;;;;4979667;28;20089;-71
2022/01/30 01:10:48;;;;;;;10.75;2.03;;;5.80;99.90;;;;;;4983599;28;20505;-71
2022/01/30 01:23:51;;;;;;;8.52;1.40;;;5.30;99.90;;;;;;4978843;28;20125;-71
2022/01/30 01:26:19;;;;;;;9.70;1.50;;;5.20;99.90;;;;;;4985260;28;20092;-71
2022/01/30 01:28:45;;;;;;;6.72;1.48;;;5.20;99.90;;;;;;4979862;28;20509;-71
2022/01/30 01:31:11;;;;;;;11.10;1.42;;;5.20;99.90;;;;;;4980983;28;20063;-71
2022/01/30 01:36:03;;;;;;;11.27;1.85;;;5.10;99.90;;;;;;4983877;28;20034;-72
2022/01/30 01:38:29;;;;;;;13.65;2.03;;;5.10;99.90;;;;;;4978380;28;20022;-72
2022/01/30 01:40:55;;;;;;;15.95;2.92;;;5.10;99.90;;;;;;4987006;28;20061;-72
2022/01/30 01:43:24;;;;;;;16.52;2.85;;;5.10;99.90;;;;;;4984446;28;20030;-72
2022/01/30 01:45:53;;;;;;;12.82;2.50;;;5.10;99.90;;;;;;4973685;28;20034;-71
2022/01/30 01:48:18;;;;;;;19.33;2.55;;;5.20;99.90;;;;;;4971478;28;20031;-71
2022/01/30 01:50:52;;;;;;;14.50;2.72;;;5.10;99.90;;;;;;4977786;28;20072;-72
2022/01/30 01:53:21;;;;;;;23.83;3.78;;;5.10;99.90;;;;;;4983886;28;20104;-71
2022/01/30 01:55:46;;;;;;;22.35;3.30;;;5.10;99.90;;;;;;4984018;28;20402;-71
2022/01/30 01:58:12;;;;;;;19.83;2.88;;;5.10;99.90;;;;;;4980489;28;20035;-72
2022/01/30 02:00:38;;;;;;;24.92;3.83;;;5.10;99.90;;;;;;4983464;28;20041;-72
2022/01/30 02:03:04;;;;;;;19.63;3.22;;;5.10;99.90;;;;;;4976256;28;20033;-71
2022/01/30 02:05:33;;;;;;;28.80;3.95;;;5.20;99.90;;;;;;4976814;28;20039;-71
2022/01/30 02:11:01;;;;;;;21.73;3.28;;;5.20;99.90;;;;;;4982163;28;20045;-72
2022/01/30 02:27:04;;;;;;;29.60;3.85;;;5.40;99.90;;;;;;4971837;28;20708;-72
2022/01/30 02:29:30;;;;;;;19.13;2.88;;;5.40;99.90;;;;;;4974190;28;20054;-73
2022/01/30 02:31:58;;;;;;;19.80;3.13;;;5.40;99.90;;;;;;4976502;28;20039;-72
2022/01/30 02:34:28;;;;;;;24.60;3.75;;;5.40;99.90;;;;;;4979862;28;20080;-72
2022/01/30 02:36:54;;;;;;;23.42;3.75;;;5.40;99.90;;;;;;4978437;28;20046;-72
2022/01/30 02:39:21;;;;;;;17.23;2.42;;;5.30;99.90;;;;;;4977238;28;20658;-72
2022/01/30 02:41:47;;;;;;;22.30;3.75;;;5.30;99.90;;;;;;4980653;28;20387;-71
2022/01/30 02:44:15;;;;;;;18.85;3.15;;;5.30;99.90;;;;;;4981888;28;20031;-71
2022/01/30 02:46:49;;;;;;;29.02;3.25;;;5.30;99.90;;;;;;4978188;28;20042;-71
2022/01/30 02:51:51;;;;;;;19.30;3.65;;;5.00;99.90;;;;;;4977602;28;20031;-71
2022/01/30 02:54:16;;;;;;;;;;;5.10;99.90;;;;;;4975069;28;20396;-72
2022/01/30 02:56:42;;;;;;;21.10;3.00;;;5.10;99.90;;;;;;4979641;28;19917;-71
2022/01/30 02:59:08;;;;;;;23.52;3.42;;;5.00;99.90;;;;;;4978439;28;20054;-72
2022/01/30 03:01:34;;;;;;;23.92;3.33;;;5.00;99.90;;;;;;4983218;28;20114;-71
2022/01/30 03:04:00;;;;;;;16.33;2.40;;;5.00;99.90;;;;;;4979983;28;20039;-71
2022/01/30 03:06:26;;;;;;;19.67;2.92;;;4.90;99.90;;;;;;4977486;28;20105;-72
2022/01/30 03:08:52;;;;;;;16.67;2.35;;;4.90;99.90;;;;;;4979148;28;20030;-71
2022/01/30 03:11:18;;;;;;;21.55;2.95;;;4.90;99.90;;;;;;4970614;28;20038;-71
2022/01/30 03:13:44;;;;;;;14.68;3.10;;;4.90;99.90;;;;;;4973650;28;20031;-71
2022/01/30 03:16:10;;;;;;;21.88;2.90;;;5.00;99.90;;;;;;4294926;28;10000695;-72
2022/01/30 03:18:36;;;;;;;16.08;2.75;;;5.00;99.90;;;;;;4971223;28;20097;-72
2022/01/30 03:21:03;;;;;;;18.52;3.55;;;5.00;99.90;;;;;;4982954;28;20149;-72
2022/01/30 03:23:29;;;;;;;18.08;3.15;;;5.00;99.90;;;;;;4981381;28;20576;-71
2022/01/30 03:25:58;;;;;;;23.23;3.22;;;4.90;99.90;;;;;;4982868;28;20026;-71
2022/01/30 03:28:25;;;;;;;20.95;3.55;;;4.90;99.90;;;;;;4979893;28;20030;-72
2022/01/30 03:30:55;;;;;;;22.20;3.38;;;4.90;99.90;;;;;;4977477;28;20042;-71
2022/01/30 03:33:21;;;;;;;17.92;3.45;;;4.90;99.90;;;;;;4979335;28;20034;-72
2022/01/30 03:35:46;;;;;;;26.45;3.38;;;4.90;99.90;;;;;;4980416;28;20034;-71
2022/01/30 03:38:14;;;;;;;24.20;3.97;;;4.80;99.90;;;;;;4986806;28;20497;-72
2022/01/30 03:40:40;;;;;;;17.55;2.90;;;4.70;99.90;;;;;;4973754;28;20402;-72
2022/01/30 03:43:05;;;;;;;16.50;2.60;;;4.80;99.90;;;;;;4986847;28;20138;-72
2022/01/30 03:45:31;;;;;;;19.55;2.90;;;4.80;99.90;;;;;;4981736;28;20046;-72
2022/01/30 03:47:56;;;;;;;20.30;2.90;;;4.80;99.90;;;;;;4977392;28;20364;-72
2022/01/30 03:50:23;;;;;;;18.38;2.78;;;4.90;99.90;;;;;;4976961;28;20046;-72
2022/01/30 03:52:49;;;;;;;18.08;3.10;;;4.90;99.90;;;;;;4984303;28;20033;-72
2022/01/30 03:55:15;;;;;;;19.52;2.83;;;4.90;99.90;;;;;;4979080;28;20038;-72
2022/01/30 03:57:40;;;;;;;15.82;3.25;;;4.90;99.90;;;;;;4978850;28;20053;-72
2022/01/30 04:00:07;;;;;;;26.38;3.40;;;4.90;99.90;;;;;;4983891;28;20038;-72
2022/01/30 04:02:33;;;;;;;17.83;2.88;;;4.90;99.90;;;;;;4980078;28;20233;-72
2022/01/30 04:04:59;;;;;;;18.38;2.95;;;4.90;99.90;;;;;;4991223;28;20061;-72
2022/01/30 04:07:26;;;;;;;18.25;3.17;;;4.90;99.90;;;;;;4984153;28;20026;-71
2022/01/30 04:09:52;;;;;;;21.30;3.55;;;4.90;99.90;;;;;;4986247;28;20042;-72
2022/01/30 04:12:18;;;;;;;22.10;3.50;;;4.90;99.90;;;;;;4984768;28;20085;-72
2022/01/30 04:14:44;;;;;;;18.77;3.05;;;4.90;99.90;;;;;;4990776;28;20470;-72
2022/01/30 04:17:10;;;;;;;19.75;2.80;;;4.90;99.90;;;;;;4985309;28;20037;-72
2022/01/30 04:19:37;;;;;;;19.02;3.10;;;4.90;99.90;;;;;;4988073;28;20406;-71
2022/01/30 04:22:03;;;;;;;25.17;3.22;;;4.90;99.90;;;;;;4977710;28;20415;-71
2022/01/30 04:24:29;;;;;;;22.25;3.28;;;4.90;99.90;;;;;;4987808;28;20403;-72
2022/01/30 04:26:54;;;;;;;18.50;3.10;;;4.90;99.90;;;;;;4978051;28;20066;-72
2022/01/30 04:29:20;;;;;;;25.67;4.25;;;4.80;99.90;;;;;;4987538;28;20089;-72
2022/01/30 04:31:48;;;;;;;17.25;2.80;;;4.80;99.90;;;;;;4980970;28;20057;-72
2022/01/30 04:34:15;;;;;;;19.83;2.95;;;4.80;99.90;;;;;;4983354;28;20027;-72
2022/01/30 04:36:55;;;;;;;19.40;2.92;;;4.70;99.90;;;;;;4986093;28;20031;-71
2022/01/30 04:39:40;;;;;;;20.27;3.00;;;4.70;99.90;;;;;;4982907;28;20364;-72
2022/01/30 04:59:40;;;;;;;;;;;4.60;99.90;;;;;;4955159;28;20133;-71
2022/01/30 05:02:09;;;;;;;19.93;2.40;;;4.60;99.90;;;;;;4946906;28;19910;-72
2022/01/30 05:09:35;;;;;;;16.38;2.88;;;4.70;99.90;;;;;;4980901;28;20030;-72
2022/01/30 05:12:01;;;;;;;21.15;3.67;;;4.70;99.90;;;;;;4984351;28;20473;-71
2022/01/30 05:14:33;;;;;;;21.65;3.15;;;4.70;99.90;;;;;;4984843;28;20024;-72
2022/01/30 05:16:59;;;;;;;21.77;3.00;;;4.70;99.90;;;;;;4981303;28;20038;-72
2022/01/30 05:19:26;;;;;;;25.52;3.22;;;4.60;99.90;;;;;;4982446;28;20084;-71
2022/01/30 05:21:52;;;;;;;18.55;3.03;;;4.60;99.90;;;;;;4987392;28;20561;-72
2022/01/30 05:24:18;;;;;;;24.40;2.92;;;4.60;99.90;;;;;;4988255;28;20035;-72
2022/01/30 05:26:45;;;;;;;17.95;2.53;;;4.60;99.90;;;;;;4985618;28;20069;-72
2022/01/30 05:29:11;;;;;;;24.20;3.42;;;4.50;99.90;;;;;;4988241;28;20125;-72
2022/01/30 05:31:37;;;;;;;24.40;3.60;;;4.50;99.90;;;;;;4981255;28;20026;-72
2022/01/30 05:34:03;;;;;;;24.60;3.55;;;4.50;99.90;;;;;;4985154;28;20057;-71
2022/01/30 05:36:30;;;;;;;18.92;3.30;;;4.40;99.90;;;;;;4982998;28;20022;-72
2022/01/30 05:38:56;;;;;;;23.98;2.88;;;4.40;99.90;;;;;;4984377;28;20037;-71
2022/01/30 05:41:22;;;;;;;23.42;3.67;;;4.40;99.90;;;;;;4985296;28;20157;-71
2022/01/30 05:43:52;;;;;;;23.45;3.38;;;4.50;99.90;;;;;;4988749;28;20605;-72
2022/01/30 05:46:31;;;;;;;17.92;3.13;;;4.50;99.90;;;;;;4984881;28;20077;-71
2022/01/30 05:48:56;;;;;;;17.23;3.00;;;4.50;99.90;;;;;;4987012;28;20442;-72
2022/01/30 05:51:22;;;;;;;25.38;3.47;;;4.50;99.90;;;;;;4985243;28;20018;-72
2022/01/30 05:53:48;;;;;;;18.27;2.75;;;4.50;99.90;;;;;;4982965;28;20030;-72
2022/01/30 05:56:13;;;;;;;14.38;2.72;;;4.60;99.90;;;;;;4982607;28;20042;-72
2022/01/30 05:58:40;;;;;;;25.02;3.25;;;4.60;99.90;;;;;;4985282;28;20104;-72
2022/01/30 06:01:05;;;;;;;25.55;3.25;;;4.60;99.90;;;;;;4977017;28;20066;-71
2022/01/30 06:03:31;;;;;;;16.45;2.70;;;4.60;99.90;;;;;;4976642;28;20054;-72
2022/01/30 06:05:57;;;;;;;17.30;3.13;;;4.60;99.90;;;;;;4986066;28;20080;-72
2022/01/30 06:08:45;;;;;;;20.40;2.78;;;4.60;99.90;;;;;;4981198;28;20022;-73
2022/01/30 06:11:12;;;;;;;22.63;3.10;;;4.70;99.90;;;;;;4981698;28;20036;-72
2022/01/30 06:13:38;;;;;;;19.58;2.85;;;4.70;99.90;;;;;;4980364;28;20118;-72
2022/01/30 06:16:04;;;;;;;19.73;3.05;;;4.70;99.90;;;;;;4978871;28;20509;-72
2022/01/30 06:18:30;;;;;;;16.10;2.95;;;4.70;99.90;;;;;;4979594;28;20041;-72
2022/01/30 06:20:55;;;;;;;22.10;2.42;;;4.70;99.90;;;;;;4987190;28;20491;-72
2022/01/30 06:23:25;;;;;;;24.70;3.67;;;4.70;99.90;;;;;;4979400;28;20057;-72
2022/01/30 06:25:54;;;;;;;15.65;2.80;;;4.70;99.90;;;;;;4977831;28;20035;-72
2022/01/30 06:28:20;;;;;;;16.77;2.60;;;4.70;99.90;;;;;;4982958;28;20031;-71
2022/01/30 06:30:46;;;;;;;15.00;2.70;;;4.70;99.90;;;;;;4981824;28;20069;-72
2022/01/30 06:33:12;;;;;;;19.45;3.28;;;4.70;99.90;;;;;;4981067;28;20124;-72
2022/01/30 06:35:37;;;;;;;23.13;3.20;;;4.60;99.90;;;;;;4980002;28;20030;-72
2022/01/30 06:38:03;;;;;;;16.38;2.65;;;4.50;99.90;;;;;;4979373;28;20030;-72
2022/01/30 06:40:29;;;;;;;17.27;2.13;;;4.50;99.90;;;;;;4984171;28;20498;-72
2022/01/30 06:42:55;;;;;;;14.55;2.30;;;4.50;99.90;;;;;;4983801;28;20030;-72
2022/01/30 06:45:20;;;;;;;17.30;2.60;;;4.40;99.90;;;;;;4978779;28;20038;-72
2022/01/30 06:47:46;;;;;;;15.10;2.40;;;4.40;99.90;;;;;;4982030;28;20432;-71
2022/01/30 06:50:13;;;;;;;21.92;2.67;;;4.40;99.90;;;;;;4981240;28;20430;-71
2022/01/30 06:52:40;;;;;;;16.85;2.65;;;4.30;99.90;;;;;;4979063;28;20035;-71
2022/01/30 06:55:06;;;;;;;18.15;2.30;;;4.30;99.90;;;;;;4977599;28;20027;-71
2022/01/30 06:57:32;;;;;;;17.15;2.63;;;4.30;99.90;;;;;;4983755;28;20130;-72
2022/01/30 06:59:58;;;;;;;20.25;2.95;;;4.20;99.90;;;;;;4981740;28;20512;-71
2022/01/30 07:02:24;;;;;;;20.02;2.80;;;4.20;99.90;;;;;;4972317;28;20054;-72
2022/01/30 07:04:49;;;;;;;24.73;4.38;;;4.20;99.90;;;;;;4979300;28;20022;-72
2022/01/30 07:07:15;;;;;;;20.95;3.20;;;4.10;99.90;;;;;;4979392;28;20085;-71
2022/01/30 07:09:41;;;;;;;22.25;3.90;;;4.10;99.90;;;;;;4979597;28;20034;-72
2022/01/30 07:12:07;;;;;;;24.27;3.90;;;4.10;99.90;;;;;;4986098;28;20391;-72
2022/01/30 07:14:33;;;;;;;24.70;4.20;;;4.10;99.90;;;;;;4977812;28;20030;-72
2022/01/30 07:16:58;;;;;;;20.70;3.22;;;4.10;99.90;;;;;;4986652;28;20466;-71
2022/01/30 07:19:24;;;;;;;24.70;4.13;;;4.20;99.90;;;;;;4985898;28;20027;-71
2022/01/30 07:21:50;;;;;;;28.52;3.78;;;4.20;99.90;;;;;;4984033;28;20156;-72
2022/01/30 07:24:16;;;;;;;22.00;3.33;;;4.30;99.90;;;;;;4982530;28;20050;-72
2022/01/30 07:26:42;;;;;;;25.58;3.45;;;4.30;99.90;;;;;;4979615;28;20109;-71
2022/01/30 07:29:07;;;;;;;36.20;4.17;;;4.30;99.90;;;;;;4289828;28;10021619;-72
2022/01/30 07:31:33;;;;;;;25.15;3.65;;;4.30;99.90;;;;;;4969832;28;20622;-72
2022/01/30 07:34:00;;;;;;;25.45;4.13;;;4.30;99.90;;;;;;4978597;28;20030;-72
2022/01/30 07:36:27;;;;;;;21.48;4.05;;;4.30;99.90;;;;;;4969807;28;20143;-72
2022/01/30 07:38:53;;;;;;;28.30;3.50;;;4.30;99.90;;;;;;4969183;28;20034;-72
2022/01/30 07:41:20;;;;;;;28.13;4.50;;;4.30;99.90;;;;;;4970598;28;20402;-72
2022/01/30 07:43:45;;;;;;;26.15;4.00;;;4.40;99.90;;;;;;4969275;28;20069;-72
2022/01/30 07:46:11;;;;;;;23.85;3.55;;;4.40;99.90;;;;;;4977901;28;20134;-72
2022/01/30 07:48:38;;;;;;;20.58;3.85;;;4.40;99.90;;;;;;4977721;28;20030;-72
2022/01/30 07:51:03;;;;;;;25.63;4.03;;;4.40;99.90;;;;;;4974733;28;20101;-73
2022/01/30 07:53:29;;;;;;;23.13;4.18;;;4.50;99.90;;;;;;4980050;28;20027;-72
2022/01/30 07:55:56;;;;;;;21.05;3.35;;;4.50;99.90;;;;;;4973920;28;20129;-72
2022/01/30 07:58:22;;;;;;;23.65;4.03;;;4.50;99.90;;;;;;4968375;28;20040;-72
2022/01/30 08:00:48;;;;;;;25.88;4.20;;;4.50;99.90;;;;;;4971350;28;20039;-72
2022/01/30 08:03:13;;;;;;;24.10;3.50;;;4.50;99.90;;;;;;4970605;28;20038;-72
2022/01/30 08:05:39;;;;;;;25.50;3.47;;;4.50;99.90;;;;;;4979821;28;20050;-72
2022/01/30 08:08:05;;;;;;;21.38;3.33;;;4.60;99.90;;;;;;4971664;28;20070;-72
2022/01/30 08:10:32;;;;;;;26.60;4.07;;;4.60;99.90;;;;;;4973080;28;20785;-71
2022/01/30 08:12:57;;;;;;;27.05;3.75;;;4.60;99.90;;;;;;4976751;28;20042;-71
2022/01/30 08:15:23;;;;;;;23.33;4.35;;;4.60;99.90;;;;;;4979857;28;20034;-71
2022/01/30 08:17:49;;;;;;;23.58;3.58;;;4.60;99.90;;;;;;4978309;28;20039;-71
2022/01/30 08:20:15;;;;;;;24.95;3.38;;;4.60;99.90;;;;;;4978329;28;20034;-71
2022/01/30 08:22:52;;;;;;;26.88;4.57;;;4.60;99.90;;;;;;4980882;28;20041;-72
2022/01/30 08:25:19;;;;;;;32.92;4.78;;;4.60;99.90;;;;;;4986150;28;20038;-71
2022/01/30 08:27:46;;;;;;;41.78;4.80;;;4.70;99.90;;;;;;4985045;28;20092;-72
2022/01/30 08:30:12;;;;;;;27.13;3.97;;;4.80;99.90;;;;;;4982407;28;20100;-71
2022/01/30 08:32:43;;;;;;;23.52;4.00;;;4.80;99.90;;;;;;4977936;28;20430;-71
2022/01/30 08:35:10;;;;;;;28.58;4.72;;;4.80;99.90;;;;;;4976630;28;20023;-71
2022/01/30 08:37:36;;;;;;;41.40;5.10;;;4.80;99.90;;;;;;4988897;28;20030;-72
2022/01/30 08:40:11;;;;;;;34.17;4.43;;;4.90;99.90;;;;;;4984190;28;20042;-71
2022/01/30 08:42:37;;;;;;;36.25;4.70;;;4.90;99.90;;;;;;4984697;28;20034;-71
2022/01/30 08:45:04;;;;;;;35.03;5.13;;;4.80;99.90;;;;;;4982935;28;20085;-71
2022/01/30 08:47:30;;;;;;;31.40;5.07;;;4.80;99.90;;;;;;4982586;28;20043;-71
2022/01/30 08:49:55;;;;;;;31.63;5.15;;;4.80;99.90;;;;;;4978534;28;20018;-73
2022/01/30 08:52:21;;;;;;;30.15;4.97;;;4.80;99.90;;;;;;4987750;28;20027;-74
2022/01/30 08:54:49;;;;;;;25.50;4.63;;;4.80;99.90;;;;;;4979862;28;20018;-74
2022/01/30 08:57:16;;;;;;;35.78;5.47;;;4.80;99.90;;;;;;4987631;28;20093;-73
2022/01/30 08:59:41;;;;;;;36.63;5.57;;;4.80;99.90;;;;;;4982036;28;20030;-72
2022/01/30 09:02:08;;;;;;;33.05;5.38;;;4.90;99.90;;;;;;4982347;28;20038;-73
2022/01/30 09:04:34;;;;;;;31.48;4.20;;;4.90;99.90;;;;;;4980438;28;20125;-73
2022/01/30 09:06:59;;;;;;;27.15;4.38;;;4.90;99.90;;;;;;4976905;28;20027;-73
2022/01/30 09:09:25;;;;;;;35.08;4.57;;;4.90;99.90;;;;;;4979854;28;20073;-73
2022/01/30 09:11:51;;;;;;;28.58;4.90;;;4.90;99.90;;;;;;4974597;28;20042;-73
2022/01/30 09:14:17;;;;;;;29.80;4.38;;;4.90;99.90;;;;;;4977493;28;20031;-73
2022/01/30 09:16:45;;;;;;;33.47;5.53;;;4.90;99.90;;;;;;4971234;28;20494;-73
2022/01/30 09:19:11;;;;;;;37.10;6.15;;;5.00;99.90;;;;;;4976370;28;20030;-73
2022/01/30 09:21:36;;;;;;;32.08;6.68;;;5.00;99.90;;;;;;4987055;28;20034;-73
2022/01/30 09:24:02;;;;;;;37.20;7.68;;;5.00;99.90;;;;;;4982584;28;20651;-72
2022/01/30 09:26:28;;;;;;;26.90;4.45;;;5.00;99.90;;;;;;4985639;28;20037;-73
2022/01/30 09:28:53;;;;;;;36.33;5.80;;;5.00;99.90;;;;;;4980493;28;20049;-73
2022/01/30 09:31:19;;;;;;;28.38;6.18;;;5.00;99.90;;;;;;4972968;28;20066;-72
2022/01/30 09:33:44;;;;;;;30.45;5.05;;;5.00;99.90;;;;;;4973190;28;20037;-72
2022/01/30 09:36:10;;;;;;;30.25;5.65;;;5.10;99.90;;;;;;4984496;28;20652;-72
2022/01/30 09:38:36;;;;;;;28.95;4.85;;;5.10;99.90;;;;;;4980615;28;20030;-73
2022/01/30 09:41:04;;;;;;;30.13;4.65;;;5.10;99.90;;;;;;4971048;28;20813;-74
2022/01/30 09:43:31;;;;;;;28.02;4.90;;;5.10;99.90;;;;;;4975548;28;20038;-74
2022/01/30 09:45:58;;;;;;;31.90;6.60;;;5.10;99.90;;;;;;4977438;28;20038;-74
2022/01/30 09:48:24;;;;;;;28.58;4.90;;;5.20;99.90;;;;;;4981496;28;20038;-73
2022/01/30 09:50:51;;;;;;;27.75;7.38;;;5.20;99.90;;;;;;4980742;28;20038;-73
2022/01/30 09:53:17;;;;;;;27.77;5.05;;;5.20;99.90;;;;;;4979485;28;20029;-73
2022/01/30 09:55:42;;;;;;;49.38;16.15;;;5.10;99.90;;;;;;4978641;28;20541;-73
2022/01/30 09:58:08;;;;;;;42.55;5.15;;;5.10;99.90;;;;;;4979405;28;20125;-73
2022/01/30 10:00:34;;;;;;;42.25;4.88;;;5.10;99.90;;;;;;4973157;28;20065;-73
2022/01/30 10:03:00;;;;;;;28.88;4.32;;;5.10;99.90;;;;;;4981494;28;20050;-72
2022/01/30 10:05:29;;;;;;;35.88;5.18;;;5.10;99.90;;;;;;4979560;28;20149;-73
2022/01/30 10:07:56;;;;;;;29.38;4.35;;;5.10;99.90;;;;;;4983203;28;20034;-73
2022/01/30 10:10:25;;;;;;;20.63;4.20;;;5.10;99.90;;;;;;4982469;28;20782;-72
2022/01/30 10:13:06;;;;;;;33.22;4.88;;;5.10;99.90;;;;;;4979324;28;20490;-72
2022/01/30 10:15:52;;;;;;;33.15;5.45;;;5.20;99.90;;;;;;4982561;28;20038;-72
2022/01/30 10:18:19;;;;;;;31.33;6.05;;;5.10;99.90;;;;;;4978353;28;20038;-72
2022/01/30 10:20:45;;;;;;;36.70;5.35;;;5.20;99.90;;;;;;4979644;28;20038;-72
2022/01/30 10:23:11;;;;;;;41.58;5.70;;;5.20;99.90;;;;;;4975376;28;20027;-72
2022/01/30 10:25:55;;;;;;;34.67;5.20;;;5.30;99.90;;;;;;4964724;28;20104;-72
2022/01/30 10:28:28;;;;;;;36.20;6.30;;;5.30;99.90;;;;;;4985410;28;20038;-72
2022/01/30 10:30:56;;;;;;;33.97;5.30;;;5.30;99.90;;;;;;4974670;28;20676;-72
2022/01/30 10:33:57;;;;;;;31.85;5.60;;;5.30;99.90;;;;;;4977173;28;20044;-72
2022/01/30 10:36:25;;;;;;;38.17;6.88;;;5.30;99.90;;;;;;4939723;28;20081;-72
2022/01/30 10:39:04;;;;;;;35.00;5.57;;;5.20;99.90;;;;;;4968907;28;20042;-73
2022/01/30 10:41:36;;;;;;;38.08;6.50;;;5.30;99.90;;;;;;4977073;28;20570;-72
2022/01/30 10:44:07;;;;;;;36.60;6.18;;;5.20;99.90;;;;;;4983950;28;20037;-73
2022/01/30 10:46:43;;;;;;;35.28;5.97;;;5.20;99.90;;;;;;4975676;28;20031;-73
2022/01/30 10:49:11;;;;;;;35.97;6.18;;;5.20;99.90;;;;;;4975288;28;20030;-73
2022/01/30 10:51:37;;;;;;;33.17;5.20;;;5.30;99.90;;;;;;4981815;28;20026;-73
2022/01/30 10:54:11;;;;;;;40.55;6.63;;;5.30;99.90;;;;;;4983424;28;20026;-73
2022/01/30 10:56:38;;;;;;;34.78;5.43;;;5.40;99.90;;;;;;4977515;28;20039;-73
2022/01/30 10:59:15;;;;;;;29.17;5.20;;;5.40;99.90;;;;;;4972160;28;20110;-73
2022/01/30 11:01:41;;;;;;;38.38;6.28;;;5.40;99.90;;;;;;4977982;28;20138;-73
2022/01/30 11:04:19;;;;;;;35.35;5.65;;;5.50;99.90;;;;;;4978380;28;20030;-73
2022/01/30 11:06:46;;;;;;;31.15;5.00;;;5.50;99.90;;;;;;4973565;28;20104;-73
2022/01/30 11:09:15;;;;;;;36.03;5.72;;;5.60;99.90;;;;;;4973981;28;20100;-73
2022/01/30 11:11:53;;;;;;;34.67;5.88;;;5.60;99.90;;;;;;4983490;28;20503;-73
2022/01/30 11:14:23;;;;;;;37.15;5.53;;;5.60;99.90;;;;;;4982205;28;20039;-73
2022/01/30 11:19:22;;;;;;;28.98;4.97;;;5.50;99.90;;;;;;4977707;28;20030;-73
2022/01/30 11:21:58;;;;;;;36.75;6.20;;;5.50;99.90;;;;;;4982231;28;20495;-73
2022/01/30 11:24:25;;;;;;;34.92;5.25;;;5.40;99.90;;;;;;4979466;28;20026;-73
2022/01/30 11:26:51;;;;;;;36.00;5.15;;;5.40;99.90;;;;;;4973829;28;20094;-73
2022/01/30 11:29:20;;;;;;;36.40;5.15;;;5.40;99.90;;;;;;4973111;28;20035;-74
2022/01/30 11:31:47;;;;;;;31.52;5.68;;;5.40;99.90;;;;;;4972947;28;20598;-73
2022/01/30 11:34:13;;;;;;;40.88;5.22;;;5.40;99.90;;;;;;4976163;28;20058;-72
2022/01/30 11:36:41;;;;;;;32.45;5.57;;;5.50;99.90;;;;;;4980681;28;20130;-72
2022/01/30 11:39:08;;;;;;;41.15;6.45;;;5.50;99.90;;;;;;4979083;28;20101;-72
2022/01/30 11:41:35;;;;;;;37.90;5.90;;;5.50;99.90;;;;;;4975838;28;20053;-73
2022/01/30 11:44:18;;;;;;;36.08;5.78;;;5.50;99.90;;;;;;4987165;28;20110;-73
2022/01/30 11:47:04;;;;;;;32.00;6.28;;;5.50;99.90;;;;;;4978295;28;20031;-72
2022/01/30 11:49:50;;;;;;;33.28;4.97;;;5.50;99.90;;;;;;4977377;28;20545;-73
2022/01/30 11:52:18;;;;;;;36.80;5.75;;;5.50;99.90;;;;;;4972409;28;20122;-73
2022/01/30 11:54:48;;;;;;;28.15;5.38;;;5.40;99.90;;;;;;4983970;28;20030;-72
2022/01/30 11:57:44;;;;;;;44.35;5.63;;;5.50;99.90;;;;;;4979175;28;20084;-73
2022/01/30 12:00:34;;;;;;;34.83;5.72;;;5.50;99.90;;;;;;4978135;28;20044;-73
2022/01/30 12:03:24;;;;;;;32.75;5.85;;;5.50;99.90;;;;;;4978394;28;20034;-73
2022/01/30 12:05:50;;;;;;;37.35;5.82;;;5.50;99.90;;;;;;4985727;28;20518;-73
2022/01/30 12:08:42;;;;;;;32.60;5.75;;;5.50;99.90;;;;;;4985433;28;20673;-73
2022/01/30 12:11:49;;;;;;;39.63;6.18;;;5.50;99.90;;;;;;4982407;28;20037;-74
2022/01/30 12:14:20;;;;;;;31.30;5.03;;;5.50;99.90;;;;;;4974336;28;20031;-73
2022/01/30 12:16:56;;;;;;;38.22;6.18;;;5.60;99.90;;;;;;4986895;28;20125;-73
2022/01/30 12:19:31;;;;;;;46.22;6.97;;;5.50;99.90;;;;;;4635761;28;10001395;-71
2022/01/30 12:21:57;;;;;;;35.85;6.25;;;5.50;99.90;;;;;;4976000;28;20055;-69
2022/01/30 12:24:24;;;;;;;40.65;6.63;;;5.50;99.90;;;;;;4983090;28;20050;-69
2022/01/30 12:26:52;;;;;;;40.97;5.82;;;5.50;99.90;;;;;;4972866;28;20042;-69
2022/01/30 12:29:45;;;;;;;40.85;5.63;;;5.50;99.90;;;;;;4971922;28;20054;-70
2022/01/30 12:32:23;;;;;;;30.13;5.60;;;5.60;99.90;;;;;;4977260;28;20121;-69
2022/01/30 12:34:55;;;;;;;33.25;5.70;;;5.60;99.90;;;;;;4982634;28;20170;-69
2022/01/30 12:37:25;;;;;;;44.15;6.65;;;5.70;99.90;;;;;;4980090;28;20454;-72
2022/01/30 12:39:52;;;;;;;38.13;6.30;;;5.70;99.90;;;;;;4980136;28;20042;-69
2022/01/30 12:42:19;;;;;;;33.97;6.15;;;5.70;99.90;;;;;;4979712;28;20034;-68
2022/01/30 12:44:49;;;;;;;48.70;5.97;;;5.70;99.90;;;;;;4977113;28;20034;-69
2022/01/30 12:47:16;;;;;;;31.27;5.20;;;5.70;99.90;;;;;;4979429;28;20030;-68
2022/01/30 12:49:48;;;;;;;42.67;6.72;;;5.70;99.90;;;;;;4973787;28;20034;-69
2022/01/30 12:52:31;;;;;;;39.40;6.10;;;5.60;99.90;;;;;;4974288;28;20032;-69
2022/01/30 12:54:59;;;;;;;37.33;5.93;;;5.60;99.90;;;;;;4974511;28;20041;-69
2022/01/30 12:57:26;;;;;;;40.10;6.28;;;5.60;99.90;;;;;;4986265;28;20041;-70
2022/01/30 12:59:56;;;;;;;31.70;5.90;;;5.60;99.90;;;;;;4979896;28;20034;-69
2022/01/30 13:02:24;;;;;;;29.77;5.43;;;5.60;99.90;;;;;;4980770;28;20030;-69
2022/01/30 13:05:08;;;;;;;42.33;6.43;;;5.70;99.90;;;;;;4972658;28;20145;-69
2022/01/30 13:07:35;;;;;;;37.83;5.57;;;5.70;99.90;;;;;;4970056;28;20043;-68
2022/01/30 13:10:16;;;;;;;32.85;5.45;;;5.70;99.90;;;;;;4982764;28;20368;-70
2022/01/30 13:12:45;;;;;;;42.10;6.32;;;5.60;99.90;;;;;;4984125;28;20068;-68
2022/01/30 13:15:14;;;;;;;30.55;5.85;;;5.60;99.90;;;;;;4984280;28;20424;-70
2022/01/30 13:17:40;;;;;;;28.00;5.25;;;5.60;99.90;;;;;;4982629;28;20031;-69
2022/01/30 13:20:12;;;;;;;32.63;6.25;;;5.60;99.90;;;;;;4982233;28;20454;-70
2022/01/30 13:22:40;;;;;;;38.63;5.85;;;5.60;99.90;;;;;;4971847;28;20419;-69
2022/01/30 13:25:17;;;;;;;30.55;5.45;;;5.60;99.90;;;;;;4978264;28;20030;-69
2022/01/30 13:27:50;;;;;;;29.80;5.15;;;5.60;99.90;;;;;;4979645;28;20574;-72
2022/01/30 13:30:22;;;;;;;41.95;6.57;;;5.60;99.90;;;;;;4970871;28;20050;-71
2022/01/30 13:32:48;;;;;;;42.75;6.90;;;5.60;99.90;;;;;;4975014;28;20085;-72
2022/01/30 13:35:19;;;;;;;40.55;6.55;;;5.60;99.90;;;;;;4980935;28;20113;-70
2022/01/30 13:37:46;;;;;;;40.35;6.38;;;5.60;99.90;;;;;;4976683;28;20045;-70
2022/01/30 13:40:24;;;;;;;39.45;6.45;;;5.60;99.90;;;;;;4972733;28;20041;-70
2022/01/30 13:42:59;;;;;;;33.92;5.30;;;5.60;99.90;;;;;;4977944;28;20093;-70
2022/01/30 13:48:12;;;;;;;36.35;5.57;;;5.50;99.90;;;;;;4987306;28;20125;-72
2022/01/30 13:50:40;;;;;;;33.55;7.05;;;5.50;99.90;;;;;;4983491;28;20027;-72
2022/01/30 13:53:15;;;;;;;40.85;7.22;;;5.50;99.90;;;;;;4982602;28;20027;-71
2022/01/30 13:55:57;;;;;;;50.50;7.70;;;5.50;99.90;;;;;;4980140;28;20372;-71
2022/01/30 13:58:46;;;;;;;42.08;6.57;;;5.50;99.90;;;;;;4979344;28;20054;-72